sensor_id;sensor_type;location;lat;lon;timestamp;pressure;altitude;pressure_sealevel;temperature;humidity
76827;BME280;65788;52.284;20.890;2024-01-11T00:00:00;101221.90;;;17.33;27.67
76827;BME280;65788;52.284;20.890;2024-01-11T00:01:37;101218.88;;;17.28;27.76
76827;BME280;65788;52.284;20.890;2024-01-11T00:03:15;101213.34;;;17.28;27.72
76827;BME280;65788;52.284;20.890;2024-01-11T00:04:52;101206.19;;;17.28;27.69
76827;BME280;65788;52.284;20.890;2024-01-11T00:06:29;101200.25;;;17.24;27.73
76827;BME280;65788;52.284;20.890;2024-01-11T00:08:07;101201.94;;;17.22;27.70
76827;BME280;65788;52.284;20.890;2024-01-11T00:09:44;101206.39;;;17.19;27.68
76827;BME280;65788;52.284;20.890;2024-01-11T00:11:31;101202.11;;;17.22;27.62
76827;BME280;65788;52.284;20.890;2024-01-11T00:13:10;101199.95;;;17.18;27.65
76827;BME280;65788;52.284;20.890;2024-01-11T00:14:49;101207.16;;;17.14;27.64
76827;BME280;65788;52.284;20.890;2024-01-11T00:16:37;101212.04;;;17.13;27.63
76827;BME280;65788;52.284;20.890;2024-01-11T00:18:14;101214.98;;;17.11;27.61
76827;BME280;65788;52.284;20.890;2024-01-11T00:19:53;101220.38;;;17.10;27.60
76827;BME280;65788;52.284;20.890;2024-01-11T00:21:32;101217.23;;;17.10;27.57
76827;BME280;65788;52.284;20.890;2024-01-11T00:23:09;101216.45;;;17.07;27.53
76827;BME280;65788;52.284;20.890;2024-01-11T00:24:50;101213.73;;;17.02;27.61
76827;BME280;65788;52.284;20.890;2024-01-11T00:26:31;101208.65;;;17.02;27.60
76827;BME280;65788;52.284;20.890;2024-01-11T00:28:07;101205.61;;;16.99;27.59
76827;BME280;65788;52.284;20.890;2024-01-11T00:29:47;101205.14;;;17.00;27.58
76827;BME280;65788;52.284;20.890;2024-01-11T00:31:25;101204.39;;;17.03;27.51
76827;BME280;65788;52.284;20.890;2024-01-11T00:33:04;101207.34;;;17.09;27.41
76827;BME280;65788;52.284;20.890;2024-01-11T00:34:41;101208.21;;;17.13;27.35
76827;BME280;65788;52.284;20.890;2024-01-11T00:36:18;101209.34;;;17.17;27.31
76827;BME280;65788;52.284;20.890;2024-01-11T00:37:58;101203.87;;;17.21;27.27
76827;BME280;65788;52.284;20.890;2024-01-11T00:39:40;101206.06;;;17.28;27.22
76827;BME280;65788;52.284;20.890;2024-01-11T00:41:18;101196.21;;;17.30;27.17
76827;BME280;65788;52.284;20.890;2024-01-11T00:42:56;101194.85;;;17.35;27.12
76827;BME280;65788;52.284;20.890;2024-01-11T00:44:35;101203.33;;;17.44;26.98
76827;BME280;65788;52.284;20.890;2024-01-11T00:46:12;101212.66;;;17.53;26.87
76827;BME280;65788;52.284;20.890;2024-01-11T00:47:50;101221.50;;;17.58;26.84
76827;BME280;65788;52.284;20.890;2024-01-11T00:49:27;101231.94;;;17.62;26.78
76827;BME280;65788;52.284;20.890;2024-01-11T00:51:05;101232.42;;;17.67;26.75
76827;BME280;65788;52.284;20.890;2024-01-11T00:52:44;101235.30;;;17.67;26.72
76827;BME280;65788;52.284;20.890;2024-01-11T00:54:22;101221.64;;;17.70;26.65
76827;BME280;65788;52.284;20.890;2024-01-11T00:56:01;101208.80;;;17.72;26.62
76827;BME280;65788;52.284;20.890;2024-01-11T00:57:38;101201.67;;;17.75;26.57
76827;BME280;65788;52.284;20.890;2024-01-11T00:59:16;101191.70;;;17.75;26.56
76827;BME280;65788;52.284;20.890;2024-01-11T01:01:03;101181.15;;;17.75;26.52
76827;BME280;65788;52.284;20.890;2024-01-11T01:02:40;101181.17;;;17.77;26.46
76827;BME280;65788;52.284;20.890;2024-01-11T01:04:18;101188.55;;;17.74;26.51
76827;BME280;65788;52.284;20.890;2024-01-11T01:05:57;101200.36;;;17.72;26.50
76827;BME280;65788;52.284;20.890;2024-01-11T01:07:42;101207.23;;;17.70;26.52
76827;BME280;65788;52.284;20.890;2024-01-11T01:09:20;101203.11;;;17.68;26.53
76827;BME280;65788;52.284;20.890;2024-01-11T01:10:59;101197.20;;;17.62;26.54
76827;BME280;65788;52.284;20.890;2024-01-11T01:12:40;101188.02;;;17.61;26.56
76827;BME280;65788;52.284;20.890;2024-01-11T01:14:17;101181.97;;;17.60;26.56
76827;BME280;65788;52.284;20.890;2024-01-11T01:15:54;101187.58;;;17.53;26.61
76827;BME280;65788;52.284;20.890;2024-01-11T01:17:32;101177.06;;;17.50;26.66
76827;BME280;65788;52.284;20.890;2024-01-11T01:19:10;101174.31;;;17.48;26.67
76827;BME280;65788;52.284;20.890;2024-01-11T01:20:47;101179.48;;;17.44;26.70
76827;BME280;65788;52.284;20.890;2024-01-11T01:22:24;101181.55;;;17.43;26.74
76827;BME280;65788;52.284;20.890;2024-01-11T01:24:01;101186.89;;;17.41;26.74
76827;BME280;65788;52.284;20.890;2024-01-11T01:25:40;101184.73;;;17.39;26.76
76827;BME280;65788;52.284;20.890;2024-01-11T01:27:17;101182.06;;;17.33;26.82
76827;BME280;65788;52.284;20.890;2024-01-11T01:28:56;101199.99;;;17.29;26.89
76827;BME280;65788;52.284;20.890;2024-01-11T01:30:36;101216.39;;;17.27;26.91
76827;BME280;65788;52.284;20.890;2024-01-11T01:32:13;101209.67;;;17.25;26.93
76827;BME280;65788;52.284;20.890;2024-01-11T01:33:51;101202.02;;;17.20;26.95
76827;BME280;65788;52.284;20.890;2024-01-11T01:35:28;101193.61;;;17.18;26.94
76827;BME280;65788;52.284;20.890;2024-01-11T01:37:05;101174.17;;;17.18;26.90
76827;BME280;65788;52.284;20.890;2024-01-11T01:38:47;101167.77;;;17.15;26.93
76827;BME280;65788;52.284;20.890;2024-01-11T01:40:27;101167.54;;;17.11;26.98
76827;BME280;65788;52.284;20.890;2024-01-11T01:42:05;101172.23;;;17.09;26.99
76827;BME280;65788;52.284;20.890;2024-01-11T01:43:44;101182.45;;;17.10;26.97
76827;BME280;65788;52.284;20.890;2024-01-11T01:45:29;101186.29;;;17.07;26.97
76827;BME280;65788;52.284;20.890;2024-01-11T01:47:08;101176.34;;;17.02;27.02
76827;BME280;65788;52.284;20.890;2024-01-11T01:48:54;101173.22;;;17.03;27.00
76827;BME280;65788;52.284;20.890;2024-01-11T01:50:38;101182.12;;;16.98;27.05
76827;BME280;65788;52.284;20.890;2024-01-11T01:52:19;101186.17;;;16.97;27.07
76827;BME280;65788;52.284;20.890;2024-01-11T01:54:06;101176.57;;;16.98;27.04
76827;BME280;65788;52.284;20.890;2024-01-11T01:55:45;101183.17;;;16.96;27.07
76827;BME280;65788;52.284;20.890;2024-01-11T01:57:27;101184.70;;;16.94;27.12
76827;BME280;65788;52.284;20.890;2024-01-11T01:59:20;101191.38;;;16.93;27.13
76827;BME280;65788;52.284;20.890;2024-01-11T02:01:05;101198.15;;;16.91;27.18
76827;BME280;65788;52.284;20.890;2024-01-11T02:02:45;101183.36;;;16.91;27.15
76827;BME280;65788;52.284;20.890;2024-01-11T02:04:26;101181.15;;;16.88;27.12
76827;BME280;65788;52.284;20.890;2024-01-11T02:06:05;101191.51;;;16.89;27.05
76827;BME280;65788;52.284;20.890;2024-01-11T02:07:47;101191.54;;;16.91;26.98
76827;BME280;65788;52.284;20.890;2024-01-11T02:09:25;101196.30;;;16.93;26.93
76827;BME280;65788;52.284;20.890;2024-01-11T02:11:04;101181.68;;;16.96;26.85
76827;BME280;65788;52.284;20.890;2024-01-11T02:12:43;101167.64;;;17.01;26.76
76827;BME280;65788;52.284;20.890;2024-01-11T02:14:22;101166.84;;;17.07;26.67
76827;BME280;65788;52.284;20.890;2024-01-11T02:15:59;101171.93;;;17.11;26.60
76827;BME280;65788;52.284;20.890;2024-01-11T02:17:39;101178.86;;;17.19;26.48
76827;BME280;65788;52.284;20.890;2024-01-11T02:19:18;101179.71;;;17.27;26.36
76827;BME280;65788;52.284;20.890;2024-01-11T02:20:56;101171.16;;;17.31;26.32
76827;BME280;65788;52.284;20.890;2024-01-11T02:22:35;101157.77;;;17.36;26.23
76827;BME280;65788;52.284;20.890;2024-01-11T02:24:14;101158.34;;;17.42;26.17
76827;BME280;65788;52.284;20.890;2024-01-11T02:25:52;101171.55;;;17.46;26.12
76827;BME280;65788;52.284;20.890;2024-01-11T02:27:47;101178.08;;;17.50;26.08
76827;BME280;65788;52.284;20.890;2024-01-11T02:29:26;101173.41;;;17.54;26.03
76827;BME280;65788;52.284;20.890;2024-01-11T02:31:03;101167.61;;;17.56;26.01
76827;BME280;65788;52.284;20.890;2024-01-11T02:32:49;101161.44;;;17.56;25.99
76827;BME280;65788;52.284;20.890;2024-01-11T02:34:29;101164.98;;;17.60;25.95
76827;BME280;65788;52.284;20.890;2024-01-11T02:36:08;101157.15;;;17.64;25.93
76827;BME280;65788;52.284;20.890;2024-01-11T02:37:48;101146.55;;;17.64;25.91
76827;BME280;65788;52.284;20.890;2024-01-11T02:39:26;101147.55;;;17.65;25.95
76827;BME280;65788;52.284;20.890;2024-01-11T02:41:06;101148.23;;;17.68;25.91
76827;BME280;65788;52.284;20.890;2024-01-11T02:42:54;101152.71;;;17.72;25.88
76827;BME280;65788;52.284;20.890;2024-01-11T02:44:31;101148.90;;;17.73;25.86
76827;BME280;65788;52.284;20.890;2024-01-11T02:46:08;101147.89;;;17.74;25.84
76827;BME280;65788;52.284;20.890;2024-01-11T02:47:47;101152.21;;;17.73;25.82
76827;BME280;65788;52.284;20.890;2024-01-11T02:49:24;101162.69;;;17.77;25.79
76827;BME280;65788;52.284;20.890;2024-01-11T02:51:01;101157.70;;;17.80;25.75
76827;BME280;65788;52.284;20.890;2024-01-11T02:52:40;101156.16;;;17.80;25.77
76827;BME280;65788;52.284;20.890;2024-01-11T02:54:17;101154.55;;;17.77;25.80
76827;BME280;65788;52.284;20.890;2024-01-11T02:55:55;101153.08;;;17.76;25.83
76827;BME280;65788;52.284;20.890;2024-01-11T02:57:33;101155.33;;;17.73;25.85
76827;BME280;65788;52.284;20.890;2024-01-11T02:59:10;101161.17;;;17.72;25.86
76827;BME280;65788;52.284;20.890;2024-01-11T03:00:47;101161.27;;;17.69;25.89
76827;BME280;65788;52.284;20.890;2024-01-11T03:02:27;101149.20;;;17.67;25.94
76827;BME280;65788;52.284;20.890;2024-01-11T03:04:08;101146.91;;;17.62;26.00
76827;BME280;65788;52.284;20.890;2024-01-11T03:05:45;101144.52;;;17.58;26.04
76827;BME280;65788;52.284;20.890;2024-01-11T03:07:23;101132.10;;;17.53;26.10
76827;BME280;65788;52.284;20.890;2024-01-11T03:09:02;101125.98;;;17.50;26.13
76827;BME280;65788;52.284;20.890;2024-01-11T03:10:53;101126.95;;;17.47;26.16
76827;BME280;65788;52.284;20.890;2024-01-11T03:12:33;101138.48;;;17.43;26.18
76827;BME280;65788;52.284;20.890;2024-01-11T03:14:10;101134.70;;;17.41;26.22
76827;BME280;65788;52.284;20.890;2024-01-11T03:15:50;101132.72;;;17.39;26.23
76827;BME280;65788;52.284;20.890;2024-01-11T03:17:27;101124.90;;;17.34;26.29
76827;BME280;65788;52.284;20.890;2024-01-11T03:19:07;101126.66;;;17.31;26.33
76827;BME280;65788;52.284;20.890;2024-01-11T03:20:44;101128.66;;;17.28;26.34
76827;BME280;65788;52.284;20.890;2024-01-11T03:22:21;101133.30;;;17.25;26.36
76827;BME280;65788;52.284;20.890;2024-01-11T03:23:58;101124.88;;;17.23;26.39
76827;BME280;65788;52.284;20.890;2024-01-11T03:25:36;101109.64;;;17.23;26.39
76827;BME280;65788;52.284;20.890;2024-01-11T03:27:13;101109.84;;;17.18;26.41
76827;BME280;65788;52.284;20.890;2024-01-11T03:28:55;101113.64;;;17.17;26.42
76827;BME280;65788;52.284;20.890;2024-01-11T03:30:32;101112.04;;;17.18;26.34
76827;BME280;65788;52.284;20.890;2024-01-11T03:32:09;101097.96;;;17.13;26.37
76827;BME280;65788;52.284;20.890;2024-01-11T03:33:52;101085.21;;;17.10;26.40
76827;BME280;65788;52.284;20.890;2024-01-11T03:35:32;101078.22;;;17.10;26.38
76827;BME280;65788;52.284;20.890;2024-01-11T03:37:10;101074.16;;;17.05;26.43
76827;BME280;65788;52.284;20.890;2024-01-11T03:38:51;101059.15;;;17.00;26.50
76827;BME280;65788;52.284;20.890;2024-01-11T03:40:28;101055.13;;;16.98;26.53
76827;BME280;65788;52.284;20.890;2024-01-11T03:42:05;101059.83;;;17.00;26.46
76827;BME280;65788;52.284;20.890;2024-01-11T03:43:45;101054.91;;;17.04;26.39
76827;BME280;65788;52.284;20.890;2024-01-11T03:45:24;101045.41;;;17.06;26.34
76827;BME280;65788;52.284;20.890;2024-01-11T03:47:05;101040.49;;;17.11;26.33
76827;BME280;65788;52.284;20.890;2024-01-11T03:48:45;101035.08;;;17.16;26.26
76827;BME280;65788;52.284;20.890;2024-01-11T03:50:23;101023.19;;;17.21;26.22
76827;BME280;65788;52.284;20.890;2024-01-11T03:52:01;101023.59;;;17.25;26.30
76827;BME280;65788;52.284;20.890;2024-01-11T03:53:38;101024.55;;;17.31;26.38
76827;BME280;65788;52.284;20.890;2024-01-11T03:55:16;101031.64;;;17.37;26.64
76827;BME280;65788;52.284;20.890;2024-01-11T03:56:53;101035.98;;;17.44;26.83
76827;BME280;65788;52.284;20.890;2024-01-11T03:58:30;101038.11;;;17.48;27.03
76827;BME280;65788;52.284;20.890;2024-01-11T04:00:08;101035.45;;;17.50;27.23
76827;BME280;65788;52.284;20.890;2024-01-11T04:01:46;101030.77;;;17.53;27.32
76827;BME280;65788;52.284;20.890;2024-01-11T04:03:47;101030.26;;;17.56;27.37
76827;BME280;65788;52.284;20.890;2024-01-11T04:05:34;101033.48;;;17.59;27.47
76827;BME280;65788;52.284;20.890;2024-01-11T04:07:11;101033.36;;;17.61;27.45
76827;BME280;65788;52.284;20.890;2024-01-11T04:08:48;101035.48;;;17.60;27.44
76827;BME280;65788;52.284;20.890;2024-01-11T04:10:25;101037.84;;;17.64;27.36
76827;BME280;65788;52.284;20.890;2024-01-11T04:12:05;101039.01;;;17.65;27.31
76827;BME280;65788;52.284;20.890;2024-01-11T04:13:49;101029.81;;;17.66;27.29
76827;BME280;65788;52.284;20.890;2024-01-11T04:15:30;101027.79;;;17.68;27.27
76827;BME280;65788;52.284;20.890;2024-01-11T04:17:07;101030.20;;;17.70;27.19
76827;BME280;65788;52.284;20.890;2024-01-11T04:18:46;101030.01;;;17.72;27.13
76827;BME280;65788;52.284;20.890;2024-01-11T04:20:23;101033.08;;;17.73;27.11
76827;BME280;65788;52.284;20.890;2024-01-11T04:22:01;101036.30;;;17.75;27.07
76827;BME280;65788;52.284;20.890;2024-01-11T04:23:39;101038.45;;;17.77;27.02
76827;BME280;65788;52.284;20.890;2024-01-11T04:25:24;101038.69;;;17.80;26.97
76827;BME280;65788;52.284;20.890;2024-01-11T04:27:01;101042.23;;;17.81;26.94
76827;BME280;65788;52.284;20.890;2024-01-11T04:28:38;101042.73;;;17.87;26.90
76827;BME280;65788;52.284;20.890;2024-01-11T04:30:16;101039.27;;;17.87;27.15
76827;BME280;65788;52.284;20.890;2024-01-11T04:31:53;101039.27;;;17.87;27.30
76827;BME280;65788;52.284;20.890;2024-01-11T04:33:30;101044.20;;;17.88;27.39
76827;BME280;65788;52.284;20.890;2024-01-11T04:35:08;101047.45;;;17.86;27.45
76827;BME280;65788;52.284;20.890;2024-01-11T04:36:46;101051.51;;;17.83;27.51
76827;BME280;65788;52.284;20.890;2024-01-11T04:38:23;101054.16;;;17.84;27.52
76827;BME280;65788;52.284;20.890;2024-01-11T04:40:00;101050.04;;;17.82;27.74
76827;BME280;65788;52.284;20.890;2024-01-11T04:41:39;101044.11;;;17.78;27.81
76827;BME280;65788;52.284;20.890;2024-01-11T04:43:16;101043.34;;;17.75;27.93
76827;BME280;65788;52.284;20.890;2024-01-11T04:44:53;101040.77;;;17.70;28.07
76827;BME280;65788;52.284;20.890;2024-01-11T04:46:32;101038.93;;;17.66;28.20
76827;BME280;65788;52.284;20.890;2024-01-11T04:48:08;101034.85;;;17.63;28.22
76827;BME280;65788;52.284;20.890;2024-01-11T04:49:46;101038.14;;;17.61;28.27
76827;BME280;65788;52.284;20.890;2024-01-11T04:51:23;101045.27;;;17.61;28.32
76827;BME280;65788;52.284;20.890;2024-01-11T04:53:00;101046.27;;;17.61;28.44
76827;BME280;65788;52.284;20.890;2024-01-11T04:54:37;101043.89;;;17.61;28.45
76827;BME280;65788;52.284;20.890;2024-01-11T04:56:18;101042.44;;;17.60;28.50
76827;BME280;65788;52.284;20.890;2024-01-11T04:57:57;101037.06;;;17.59;28.49
76827;BME280;65788;52.284;20.890;2024-01-11T04:59:35;101041.65;;;17.62;28.54
76827;BME280;65788;52.284;20.890;2024-01-11T05:01:16;101041.80;;;17.64;28.55
76827;BME280;65788;52.284;20.890;2024-01-11T05:03:02;101039.84;;;17.68;28.54
76827;BME280;65788;52.284;20.890;2024-01-11T05:04:39;101040.35;;;17.75;28.44
76827;BME280;65788;52.284;20.890;2024-01-11T05:06:18;101041.56;;;17.82;28.30
76827;BME280;65788;52.284;20.890;2024-01-11T05:07:57;101032.88;;;17.85;28.30
76827;BME280;65788;52.284;20.890;2024-01-11T05:09:34;101030.13;;;17.87;28.25
76827;BME280;65788;52.284;20.890;2024-01-11T05:11:17;101021.16;;;17.91;28.20
76827;BME280;65788;52.284;20.890;2024-01-11T05:12:59;101019.34;;;17.93;28.20
76827;BME280;65788;52.284;20.890;2024-01-11T05:14:36;101016.38;;;17.94;28.15
76827;BME280;65788;52.284;20.890;2024-01-11T05:16:31;101014.80;;;17.98;28.05
76827;BME280;65788;52.284;20.890;2024-01-11T05:18:09;101011.32;;;17.99;27.99
76827;BME280;65788;52.284;20.890;2024-01-11T05:19:51;101009.66;;;17.98;27.96
76827;BME280;65788;52.284;20.890;2024-01-11T05:21:29;101003.42;;;17.97;27.93
76827;BME280;65788;52.284;20.890;2024-01-11T05:23:08;100993.70;;;17.98;27.89
76827;BME280;65788;52.284;20.890;2024-01-11T05:24:45;100992.50;;;17.96;27.98
76827;BME280;65788;52.284;20.890;2024-01-11T05:26:31;100990.23;;;17.95;28.04
76827;BME280;65788;52.284;20.890;2024-01-11T05:28:11;100987.09;;;17.92;28.14
76827;BME280;65788;52.284;20.890;2024-01-11T05:29:48;100990.14;;;17.94;28.21
76827;BME280;65788;52.284;20.890;2024-01-11T05:31:28;100987.42;;;17.95;28.37
76827;BME280;65788;52.284;20.890;2024-01-11T05:33:05;100980.51;;;17.94;28.47
76827;BME280;65788;52.284;20.890;2024-01-11T05:34:42;100974.25;;;17.94;28.53
76827;BME280;65788;52.284;20.890;2024-01-11T05:36:19;100976.84;;;17.97;28.43
76827;BME280;65788;52.284;20.890;2024-01-11T05:37:56;100972.69;;;18.01;28.31
76827;BME280;65788;52.284;20.890;2024-01-11T05:39:33;100972.66;;;18.02;28.37
76827;BME280;65788;52.284;20.890;2024-01-11T05:41:14;100970.64;;;18.05;28.37
76827;BME280;65788;52.284;20.890;2024-01-11T05:42:51;100975.48;;;18.08;28.38
76827;BME280;65788;52.284;20.890;2024-01-11T05:44:30;100967.82;;;18.10;28.65
76827;BME280;65788;52.284;20.890;2024-01-11T05:46:11;100963.45;;;18.13;28.78
76827;BME280;65788;52.284;20.890;2024-01-11T05:47:48;100956.01;;;18.14;28.86
76827;BME280;65788;52.284;20.890;2024-01-11T05:49:26;100952.60;;;18.15;28.95
76827;BME280;65788;52.284;20.890;2024-01-11T05:51:04;100955.78;;;18.17;28.97
76827;BME280;65788;52.284;20.890;2024-01-11T05:52:41;100960.14;;;18.19;28.94
76827;BME280;65788;52.284;20.890;2024-01-11T05:54:19;100958.06;;;18.20;28.94
76827;BME280;65788;52.284;20.890;2024-01-11T05:55:56;100955.81;;;18.21;28.90
76827;BME280;65788;52.284;20.890;2024-01-11T05:57:37;100954.96;;;18.22;29.00
76827;BME280;65788;52.284;20.890;2024-01-11T05:59:15;100951.83;;;18.23;29.09
76827;BME280;65788;52.284;20.890;2024-01-11T06:00:52;100948.15;;;18.23;29.09
76827;BME280;65788;52.284;20.890;2024-01-11T06:02:29;100943.33;;;18.22;29.06
76827;BME280;65788;52.284;20.890;2024-01-11T06:04:08;100937.23;;;18.21;28.97
76827;BME280;65788;52.284;20.890;2024-01-11T06:05:45;100936.16;;;18.19;29.02
76827;BME280;65788;52.284;20.890;2024-01-11T06:07:25;100933.87;;;18.20;29.08
76827;BME280;65788;52.284;20.890;2024-01-11T06:09:02;100932.09;;;18.18;29.17
76827;BME280;65788;52.284;20.890;2024-01-11T06:10:41;100929.77;;;18.19;29.18
76827;BME280;65788;52.284;20.890;2024-01-11T06:12:18;100929.55;;;18.19;29.12
76827;BME280;65788;52.284;20.890;2024-01-11T06:13:57;100930.40;;;18.19;29.00
76827;BME280;65788;52.284;20.890;2024-01-11T06:15:36;100932.23;;;18.19;28.94
76827;BME280;65788;52.284;20.890;2024-01-11T06:17:13;100930.04;;;18.21;28.82
76827;BME280;65788;52.284;20.890;2024-01-11T06:18:54;100927.81;;;18.21;28.70
76827;BME280;65788;52.284;20.890;2024-01-11T06:20:31;100926.80;;;18.21;28.92
76827;BME280;65788;52.284;20.890;2024-01-11T06:22:10;100926.00;;;18.25;29.12
76827;BME280;65788;52.284;20.890;2024-01-11T06:23:48;100925.84;;;18.30;29.14
76827;BME280;65788;52.284;20.890;2024-01-11T06:25:25;100928.41;;;18.29;29.15
76827;BME280;65788;52.284;20.890;2024-01-11T06:27:03;100920.50;;;18.30;29.13
76827;BME280;65788;52.284;20.890;2024-01-11T06:28:42;100921.87;;;18.31;29.19
76827;BME280;65788;52.284;20.890;2024-01-11T06:30:19;100919.41;;;18.33;29.35
76827;BME280;65788;52.284;20.890;2024-01-11T06:31:56;100913.48;;;18.33;29.64
76827;BME280;65788;52.284;20.890;2024-01-11T06:33:34;100913.19;;;18.34;29.65
76827;BME280;65788;52.284;20.890;2024-01-11T06:35:16;100906.73;;;18.31;29.61
76827;BME280;65788;52.284;20.890;2024-01-11T06:36:54;100898.28;;;18.35;29.56
76827;BME280;65788;52.284;20.890;2024-01-11T06:38:33;100901.56;;;18.35;29.43
76827;BME280;65788;52.284;20.890;2024-01-11T06:40:10;100905.08;;;18.32;29.28
76827;BME280;65788;52.284;20.890;2024-01-11T06:41:48;100908.95;;;18.32;29.13
76827;BME280;65788;52.284;20.890;2024-01-11T06:43:25;100900.50;;;18.33;28.98
76827;BME280;65788;52.284;20.890;2024-01-11T06:45:04;100894.77;;;18.32;28.85
76827;BME280;65788;52.284;20.890;2024-01-11T06:46:44;100894.02;;;18.33;28.68
76827;BME280;65788;52.284;20.890;2024-01-11T06:48:23;100894.83;;;18.34;28.58
76827;BME280;65788;52.284;20.890;2024-01-11T06:50:07;100895.80;;;18.34;28.42
76827;BME280;65788;52.284;20.890;2024-01-11T06:51:45;100907.27;;;18.34;28.30
76827;BME280;65788;52.284;20.890;2024-01-11T06:53:22;100911.30;;;18.36;28.21
76827;BME280;65788;52.284;20.890;2024-01-11T06:55:05;100910.75;;;18.38;28.09
76827;BME280;65788;52.284;20.890;2024-01-11T06:56:43;100910.17;;;18.34;28.03
76827;BME280;65788;52.284;20.890;2024-01-11T06:58:30;100907.38;;;18.36;27.94
76827;BME280;65788;52.284;20.890;2024-01-11T07:00:07;100906.23;;;18.36;27.93
76827;BME280;65788;52.284;20.890;2024-01-11T07:01:47;100908.95;;;18.35;27.94
76827;BME280;65788;52.284;20.890;2024-01-11T07:03:24;100903.50;;;18.36;27.94
76827;BME280;65788;52.284;20.890;2024-01-11T07:05:13;100891.53;;;18.34;27.99
76827;BME280;65788;52.284;20.890;2024-01-11T07:06:52;100898.23;;;18.35;27.99
76827;BME280;65788;52.284;20.890;2024-01-11T07:08:31;100897.58;;;18.37;27.93
76827;BME280;65788;52.284;20.890;2024-01-11T07:10:09;100897.32;;;18.38;27.92
76827;BME280;65788;52.284;20.890;2024-01-11T07:11:46;100902.43;;;18.38;28.05
76827;BME280;65788;52.284;20.890;2024-01-11T07:13:25;100900.88;;;18.26;28.20
76827;BME280;65788;52.284;20.890;2024-01-11T07:15:04;100886.24;;;18.32;28.56
76827;BME280;65788;52.284;20.890;2024-01-11T07:16:44;100881.96;;;18.35;28.66
76827;BME280;65788;52.284;20.890;2024-01-11T07:18:22;100880.47;;;18.36;28.70
76827;BME280;65788;52.284;20.890;2024-01-11T07:20:03;100876.58;;;18.34;28.81
76827;BME280;65788;52.284;20.890;2024-01-11T07:21:50;100870.59;;;18.37;28.79
76827;BME280;65788;52.284;20.890;2024-01-11T07:23:27;100876.36;;;18.40;28.75
76827;BME280;65788;52.284;20.890;2024-01-11T07:25:06;100881.92;;;18.30;28.70
76827;BME280;65788;52.284;20.890;2024-01-11T07:26:45;100882.80;;;18.34;28.85
76827;BME280;65788;52.284;20.890;2024-01-11T07:28:30;100882.31;;;18.36;28.79
76827;BME280;65788;52.284;20.890;2024-01-11T07:30:13;100881.77;;;18.38;28.76
76827;BME280;65788;52.284;20.890;2024-01-11T07:31:50;100886.23;;;18.38;28.73
76827;BME280;65788;52.284;20.890;2024-01-11T07:33:28;100887.50;;;18.41;28.69
76827;BME280;65788;52.284;20.890;2024-01-11T07:35:15;100880.94;;;18.43;28.64
76827;BME280;65788;52.284;20.890;2024-01-11T07:36:52;100878.03;;;18.43;28.62
76827;BME280;65788;52.284;20.890;2024-01-11T07:38:30;100874.77;;;18.44;28.56
76827;BME280;65788;52.284;20.890;2024-01-11T07:40:07;100875.59;;;18.40;28.38
76827;BME280;65788;52.284;20.890;2024-01-11T07:41:49;100873.20;;;18.37;28.53
76827;BME280;65788;52.284;20.890;2024-01-11T07:43:29;100878.38;;;18.40;28.45
76827;BME280;65788;52.284;20.890;2024-01-11T07:45:13;100878.04;;;18.43;28.43
76827;BME280;65788;52.284;20.890;2024-01-11T07:46:50;100876.85;;;18.44;28.45
76827;BME280;65788;52.284;20.890;2024-01-11T07:48:33;100873.66;;;18.45;28.41
76827;BME280;65788;52.284;20.890;2024-01-11T07:50:10;100885.66;;;18.42;28.36
76827;BME280;65788;52.284;20.890;2024-01-11T07:51:48;100882.42;;;18.43;28.38
76827;BME280;65788;52.284;20.890;2024-01-11T07:53:27;100884.48;;;18.45;28.27
76827;BME280;65788;52.284;20.890;2024-01-11T07:55:05;100889.25;;;18.45;28.29
76827;BME280;65788;52.284;20.890;2024-01-11T07:56:47;100895.05;;;18.45;28.25
76827;BME280;65788;52.284;20.890;2024-01-11T07:58:26;100896.94;;;18.48;28.23
76827;BME280;65788;52.284;20.890;2024-01-11T08:00:06;100892.23;;;18.48;28.21
76827;BME280;65788;52.284;20.890;2024-01-11T08:01:43;100896.48;;;18.48;28.23
76827;BME280;65788;52.284;20.890;2024-01-11T08:03:21;100885.06;;;18.50;28.19
76827;BME280;65788;52.284;20.890;2024-01-11T08:05:01;100885.40;;;18.50;28.21
76827;BME280;65788;52.284;20.890;2024-01-11T08:06:42;100889.24;;;18.50;28.21
76827;BME280;65788;52.284;20.890;2024-01-11T08:08:20;100896.73;;;18.47;28.13
76827;BME280;65788;52.284;20.890;2024-01-11T08:09:58;100896.00;;;18.46;28.18
76827;BME280;65788;52.284;20.890;2024-01-11T08:11:37;100888.20;;;18.48;28.13
76827;BME280;65788;52.284;20.890;2024-01-11T08:13:14;100885.83;;;18.49;28.09
76827;BME280;65788;52.284;20.890;2024-01-11T08:14:51;100891.04;;;18.51;28.08
76827;BME280;65788;52.284;20.890;2024-01-11T08:16:31;100888.30;;;18.51;28.06
76827;BME280;65788;52.284;20.890;2024-01-11T08:18:09;100891.34;;;18.51;28.06
76827;BME280;65788;52.284;20.890;2024-01-11T08:19:46;100891.81;;;18.53;28.03
76827;BME280;65788;52.284;20.890;2024-01-11T08:21:24;100891.02;;;18.55;28.02
76827;BME280;65788;52.284;20.890;2024-01-11T08:23:03;100892.32;;;18.51;28.00
76827;BME280;65788;52.284;20.890;2024-01-11T08:24:44;100894.67;;;18.51;27.99
76827;BME280;65788;52.284;20.890;2024-01-11T08:26:23;100893.48;;;18.54;27.94
76827;BME280;65788;52.284;20.890;2024-01-11T08:28:00;100892.23;;;18.57;27.92
76827;BME280;65788;52.284;20.890;2024-01-11T08:29:38;100903.44;;;18.54;27.96
76827;BME280;65788;52.284;20.890;2024-01-11T08:31:16;100899.67;;;18.54;27.96